createdAt,value
2023-11-08T00:01:30.516Z,11.27
2023-11-08T00:03:58.000Z,11.21
2023-11-08T00:06:25.468Z,11.32
2023-11-08T00:08:53.072Z,11.31
2023-11-08T00:11:24.854Z,11.16
2023-11-08T00:13:52.721Z,11.04
2023-11-08T00:16:20.158Z,10.98
2023-11-08T00:18:47.607Z,11.10
2023-11-08T00:21:15.192Z,11.10
2023-11-08T00:23:42.730Z,10.98
2023-11-08T00:26:12.164Z,10.88
2023-11-08T00:28:40.515Z,10.84
2023-11-08T00:31:08.693Z,10.99
2023-11-08T00:33:36.176Z,11.08
2023-11-08T00:36:03.998Z,10.95
2023-11-08T00:38:31.348Z,10.84
2023-11-08T00:40:59.273Z,10.75
2023-11-08T00:43:26.880Z,10.72
2023-11-08T00:45:54.983Z,10.89
2023-11-08T00:48:24.960Z,10.98
2023-11-08T00:50:54.854Z,10.86
2023-11-08T00:53:23.013Z,10.75
2023-11-08T00:55:50.900Z,10.70
2023-11-08T00:58:18.341Z,10.83
2023-11-08T01:00:46.202Z,10.86
2023-11-08T01:03:14.472Z,10.76
2023-11-08T01:05:42.427Z,10.68
2023-11-08T01:08:13.262Z,10.63
2023-11-08T01:10:44.409Z,10.73
2023-11-08T01:13:14.361Z,10.79
2023-11-08T01:15:41.817Z,10.76
2023-11-08T01:18:09.853Z,10.66
2023-11-08T01:20:38.592Z,10.60
2023-11-08T01:23:05.974Z,10.71
2023-11-08T01:25:33.554Z,10.77
2023-11-08T01:28:01.312Z,10.68
2023-11-08T01:30:28.844Z,10.60
2023-11-08T01:32:58.679Z,10.56
2023-11-08T01:35:26.368Z,10.68
2023-11-08T01:37:53.770Z,10.77
2023-11-08T01:40:22.336Z,10.68
2023-11-08T01:42:49.775Z,10.61
2023-11-08T01:45:18.007Z,10.58
2023-11-08T01:47:45.742Z,10.70
2023-11-08T01:50:13.227Z,10.78
2023-11-08T01:52:40.655Z,10.67
2023-11-08T01:55:08.825Z,10.56
2023-11-08T01:57:37.127Z,10.52
2023-11-08T02:00:06.619Z,10.66
2023-11-08T02:02:40.810Z,10.77
2023-11-08T02:05:08.765Z,10.71
2023-11-08T02:09:06.462Z,10.40
2023-11-08T02:11:34.478Z,10.77
2023-11-08T02:14:02.966Z,10.90
2023-11-08T02:16:33.925Z,10.83
2023-11-08T02:19:01.413Z,10.74
2023-11-08T02:21:28.938Z,10.70
2023-11-08T02:23:56.510Z,10.79
2023-11-08T02:26:24.073Z,10.88
2023-11-08T02:28:51.943Z,10.80
2023-11-08T02:31:19.602Z,10.71
2023-11-08T02:33:47.063Z,10.67
2023-11-08T02:36:15.449Z,10.79
2023-11-08T02:38:43.057Z,10.90
2023-11-08T02:41:10.479Z,10.81
2023-11-08T02:43:37.902Z,10.71
2023-11-08T02:46:05.693Z,10.68
2023-11-08T02:48:33.824Z,10.84
2023-11-08T02:51:02.027Z,10.94
2023-11-08T02:53:30.228Z,10.87
2023-11-08T02:55:58.126Z,10.80
2023-11-08T02:58:25.470Z,10.78
2023-11-08T03:00:56.063Z,10.91
2023-11-08T03:03:23.673Z,11.01
2023-11-08T03:05:51.845Z,10.95
2023-11-08T03:08:19.888Z,10.88
2023-11-08T03:10:47.362Z,10.86
2023-11-08T03:13:16.177Z,10.97
2023-11-08T03:15:43.892Z,11.08
2023-11-08T03:18:11.416Z,11.02
2023-11-08T03:20:40.348Z,10.96
2023-11-08T03:23:08.282Z,10.93
2023-11-08T03:25:35.703Z,11.10
2023-11-08T03:28:03.517Z,11.15
2023-11-08T03:30:31.006Z,11.08
2023-11-08T03:32:59.434Z,11.03
2023-11-08T03:35:26.937Z,11.00
2023-11-08T03:37:56.342Z,11.15
2023-11-08T03:40:23.737Z,11.24
2023-11-08T03:42:51.495Z,11.18
2023-11-08T03:45:18.998Z,11.09
2023-11-08T03:47:46.394Z,11.04
2023-11-08T03:50:13.880Z,11.12
2023-11-08T03:52:41.311Z,11.18
2023-11-08T03:55:09.570Z,11.05
2023-11-08T03:57:37.379Z,10.91
2023-11-08T04:00:06.154Z,10.83
2023-11-08T04:02:37.804Z,10.96
2023-11-08T04:05:05.542Z,11.02
2023-11-08T04:07:33.054Z,10.89
2023-11-08T04:10:00.523Z,10.80
2023-11-08T04:12:28.384Z,10.74
2023-11-08T04:14:55.918Z,10.79
2023-11-08T04:17:23.379Z,10.97
2023-11-08T04:19:50.950Z,10.97
2023-11-08T04:22:19.158Z,10.88
2023-11-08T04:24:46.722Z,10.82
2023-11-08T04:27:14.335Z,10.79
2023-11-08T04:29:43.269Z,10.92
2023-11-08T04:32:10.813Z,11.03
2023-11-08T04:34:38.321Z,10.95
2023-11-08T04:37:10.941Z,10.86
2023-11-08T04:39:38.825Z,10.82
2023-11-08T04:42:07.350Z,10.95
2023-11-08T04:44:35.250Z,11.04
2023-11-08T04:47:03.088Z,10.95
2023-11-08T04:49:30.559Z,10.85
2023-11-08T04:51:58.042Z,10.78
2023-11-08T04:54:26.116Z,10.91
2023-11-08T04:56:54.376Z,11.00
2023-11-08T04:59:21.742Z,10.91
2023-11-08T05:01:49.296Z,10.84
2023-11-08T05:04:16.695Z,10.79
2023-11-08T05:06:44.230Z,10.93
2023-11-08T05:09:16.701Z,10.98
2023-11-08T05:11:44.428Z,10.85
2023-11-08T05:14:12.907Z,10.72
2023-11-08T05:16:40.984Z,10.70
2023-11-08T05:19:08.659Z,10.88
2023-11-08T05:21:36.247Z,10.95
2023-11-08T05:24:03.768Z,10.86
2023-11-08T05:26:31.101Z,10.80
2023-11-08T05:28:58.447Z,10.79
2023-11-08T05:31:25.866Z,10.98
2023-11-08T05:33:54.244Z,11.05
2023-11-08T05:36:21.698Z,10.97
2023-11-08T05:38:49.230Z,10.89
2023-11-08T05:41:20.650Z,10.86
2023-11-08T05:43:48.166Z,10.99
2023-11-08T05:46:15.596Z,11.03
2023-11-08T05:48:43.246Z,10.95
2023-11-08T05:51:10.620Z,10.86
2023-11-08T05:53:39.012Z,10.84
2023-11-08T05:56:07.812Z,10.95
2023-11-08T05:58:36.929Z,11.01
2023-11-08T06:01:06.122Z,10.89
2023-11-08T06:03:33.548Z,10.78
2023-11-08T06:06:01.134Z,10.74
2023-11-08T06:08:28.557Z,10.90
2023-11-08T06:10:55.953Z,10.97
2023-11-08T06:13:23.871Z,10.89
2023-11-08T06:15:51.413Z,10.81
2023-11-08T06:18:21.888Z,10.80
2023-11-08T06:20:49.547Z,10.96
2023-11-08T06:23:16.989Z,11.07
2023-11-08T06:25:45.237Z,11.00
2023-11-08T06:28:12.989Z,10.95
2023-11-08T06:30:40.728Z,10.97
2023-11-08T06:33:09.142Z,11.14
2023-11-08T06:35:39.023Z,11.26
2023-11-08T06:38:06.431Z,11.24
2023-11-08T06:40:33.774Z,11.18
2023-11-08T06:43:01.299Z,11.17
2023-11-08T06:45:28.714Z,11.31
2023-11-08T06:47:56.191Z,11.41
2023-11-08T06:50:23.654Z,11.34
2023-11-08T06:52:51.007Z,11.27
2023-11-08T06:55:23.325Z,11.26
2023-11-08T06:58:03.331Z,11.43
2023-11-08T07:00:30.924Z,11.51
2023-11-08T07:02:58.562Z,11.41
2023-11-08T07:05:30.405Z,11.31
2023-11-08T07:08:04.223Z,11.44
2023-11-08T07:10:31.674Z,11.48
2023-11-08T07:12:59.175Z,11.37
2023-11-08T07:15:28.076Z,11.31
2023-11-08T07:17:55.691Z,11.49
2023-11-08T07:20:23.658Z,11.55
2023-11-08T07:22:51.092Z,11.46
2023-11-08T07:25:19.180Z,11.41
2023-11-08T07:27:46.635Z,11.59
2023-11-08T07:30:16.191Z,11.68
2023-11-08T07:32:47.372Z,11.58
2023-11-08T07:35:15.131Z,11.51
2023-11-08T07:37:42.555Z,11.61
2023-11-08T07:40:13.862Z,11.67
2023-11-08T07:42:42.068Z,11.65
2023-11-08T07:45:10.577Z,11.57
2023-11-08T07:47:38.224Z,11.55
2023-11-08T07:50:07.779Z,11.75
2023-11-08T07:52:35.310Z,11.83
2023-11-08T07:55:02.887Z,11.74
2023-11-08T07:57:30.369Z,11.70
2023-11-08T07:59:57.791Z,11.85
2023-11-08T08:02:25.270Z,11.93
2023-11-08T08:04:55.379Z,11.85
2023-11-08T08:07:22.959Z,11.77
2023-11-08T08:09:50.443Z,11.93
2023-11-08T08:12:17.884Z,12.03
2023-11-08T08:14:45.303Z,11.94
2023-11-08T08:17:14.104Z,11.86
2023-11-08T08:19:42.377Z,11.99
2023-11-08T08:22:10.024Z,12.01
2023-11-08T08:24:37.710Z,11.91
2023-11-08T08:27:05.489Z,11.86
2023-11-08T08:29:33.311Z,11.98
2023-11-08T08:32:00.777Z,12.02
2023-11-08T08:34:31.616Z,11.91
2023-11-08T08:37:00.051Z,11.86
2023-11-08T08:39:29.821Z,12.01
2023-11-08T08:41:58.307Z,12.08
2023-11-08T08:44:25.763Z,11.97
2023-11-08T08:46:53.460Z,11.89
2023-11-08T08:49:23.005Z,11.90
2023-11-08T08:51:51.367Z,11.92
2023-11-08T08:54:22.782Z,11.95
2023-11-08T08:56:50.843Z,11.92
2023-11-08T08:59:18.261Z,11.82
2023-11-08T09:01:45.774Z,11.79
2023-11-08T09:04:13.600Z,11.85
2023-11-08T09:06:41.266Z,11.86
2023-11-08T09:09:14.515Z,11.77
2023-11-08T09:11:42.225Z,11.73
2023-11-08T09:14:10.113Z,11.80
2023-11-08T09:16:39.589Z,11.81
2023-11-08T09:19:11.476Z,11.70
2023-11-08T09:21:39.370Z,11.71
2023-11-08T09:24:08.130Z,11.69
2023-11-08T09:26:41.655Z,11.63
2023-11-08T09:29:09.484Z,11.50
2023-11-08T09:31:38.479Z,11.47
2023-11-08T09:34:06.096Z,11.56
2023-11-08T09:36:34.271Z,11.47
2023-11-08T09:39:02.327Z,11.37
2023-11-08T09:41:29.957Z,11.28
2023-11-08T09:43:57.525Z,11.27
2023-11-08T09:46:26.223Z,11.40
2023-11-08T09:48:55.846Z,11.45
2023-11-08T09:51:23.464Z,11.44
2023-11-08T09:53:51.436Z,11.62
2023-11-08T09:56:18.882Z,11.74
2023-11-08T09:58:49.319Z,11.78
2023-11-08T10:01:17.426Z,11.80
2023-11-08T10:03:45.771Z,11.81
2023-11-08T10:06:13.688Z,11.70
2023-11-08T10:08:41.240Z,11.68
2023-11-08T10:11:08.730Z,11.70
2023-11-08T10:13:49.954Z,11.72
2023-11-08T10:16:18.644Z,11.63
2023-11-08T10:19:36.064Z,11.52
2023-11-08T10:21:50.604Z,11.63
2023-11-08T10:24:18.491Z,11.70
2023-11-08T10:26:47.585Z,11.74
2023-11-08T10:29:15.653Z,11.69
2023-11-08T10:31:43.538Z,11.63
2023-11-08T10:34:12.610Z,11.68
2023-11-08T10:36:40.838Z,11.70
2023-11-08T10:39:16.803Z,11.67
2023-11-08T10:41:45.049Z,11.74
2023-11-08T10:44:23.454Z,11.77
2023-11-08T10:47:02.141Z,11.83
2023-11-08T10:49:29.615Z,11.88
2023-11-08T10:51:58.265Z,11.83
2023-11-08T10:54:26.265Z,11.60
2023-11-08T10:56:53.818Z,11.43
2023-11-08T10:59:21.389Z,11.32
2023-11-08T11:01:48.932Z,11.31
2023-11-08T11:04:16.955Z,11.34
2023-11-08T11:06:44.758Z,11.42
2023-11-08T11:09:12.504Z,11.48
2023-11-08T11:11:43.906Z,11.49
2023-11-08T11:14:38.980Z,11.53
2023-11-08T11:17:31.439Z,11.65
2023-11-08T11:20:02.282Z,11.79
2023-11-08T11:22:29.722Z,11.84
2023-11-08T11:24:58.507Z,11.73
2023-11-08T11:27:35.317Z,11.74
2023-11-08T11:30:15.388Z,11.65
2023-11-08T11:32:48.348Z,11.58
2023-11-08T11:35:19.936Z,11.55
2023-11-08T11:38:11.593Z,11.58
2023-11-08T11:40:49.938Z,11.63
2023-11-08T11:43:33.779Z,11.70
2023-11-08T11:46:03.376Z,11.86
2023-11-08T11:48:34.846Z,11.92
2023-11-08T11:51:03.255Z,11.88
2023-11-08T11:53:31.663Z,11.86
2023-11-08T11:56:06.645Z,11.90
2023-11-08T11:58:34.114Z,11.86
2023-11-08T12:01:01.647Z,11.71
2023-11-08T12:03:29.166Z,11.67
2023-11-08T12:05:56.833Z,11.56
2023-11-08T12:08:25.348Z,11.41
2023-11-08T12:10:52.787Z,11.45
2023-11-08T12:13:20.221Z,11.44
2023-11-08T12:16:00.618Z,11.44
2023-11-08T12:18:28.200Z,11.32
2023-11-08T12:20:55.644Z,11.30
2023-11-08T12:23:23.513Z,11.23
2023-11-08T12:25:51.820Z,11.19
2023-11-08T12:28:19.210Z,11.16
2023-11-08T12:30:47.372Z,11.21
2023-11-08T12:33:15.633Z,11.19
2023-11-08T12:35:43.662Z,11.30
2023-11-08T12:38:11.115Z,11.34
2023-11-08T12:40:38.680Z,11.25
2023-11-08T12:43:56.796Z,11.22
2023-11-08T12:46:36.141Z,11.26
2023-11-08T12:49:01.593Z,11.31
2023-11-08T12:51:31.021Z,11.31
2023-11-08T12:53:58.547Z,11.30
2023-11-08T12:56:25.975Z,11.34
2023-11-08T12:58:53.419Z,11.37
2023-11-08T13:01:21.063Z,11.36
2023-11-08T13:03:48.702Z,11.45
2023-11-08T13:06:16.151Z,11.51
2023-11-08T13:08:53.885Z,11.49
2023-11-08T13:11:21.363Z,11.50
2023-11-08T13:13:49.111Z,11.54
2023-11-08T13:16:16.564Z,11.57
2023-11-08T13:18:44.329Z,11.51
2023-11-08T13:21:11.765Z,11.48
2023-11-08T13:24:01.576Z,11.48
2023-11-08T13:26:26.869Z,11.37
2023-11-08T13:28:54.314Z,11.04
2023-11-08T13:31:21.747Z,10.86
2023-11-08T13:33:49.567Z,10.80
2023-11-08T13:36:17.287Z,10.79
2023-11-08T13:38:44.734Z,10.72
2023-11-08T13:41:12.249Z,10.62
2023-11-08T13:43:39.776Z,10.56
2023-11-08T13:46:08.996Z,10.62
2023-11-08T13:48:36.985Z,10.61
2023-11-08T13:51:07.968Z,10.66
2023-11-08T13:53:35.898Z,10.79
2023-11-08T13:56:04.118Z,10.97
2023-11-08T13:58:34.930Z,11.02
2023-11-08T14:01:08.857Z,10.88
2023-11-08T14:03:37.487Z,10.84
2023-11-08T14:06:07.632Z,10.77
2023-11-08T14:08:35.517Z,10.81
2023-11-08T14:11:03.166Z,10.80
2023-11-08T14:13:30.714Z,10.80
2023-11-08T14:15:58.265Z,10.74
2023-11-08T14:18:25.899Z,10.79
2023-11-08T14:20:56.065Z,10.88
2023-11-08T14:23:23.626Z,10.98
2023-11-08T14:26:51.989Z,10.70
2023-11-08T14:29:27.705Z,10.94
2023-11-08T14:32:01.511Z,11.00
2023-11-08T14:34:31.955Z,11.00
2023-11-08T14:36:59.801Z,10.96
2023-11-08T14:39:27.349Z,10.95
2023-11-08T14:41:54.773Z,10.93
2023-11-08T14:44:22.321Z,10.92
2023-11-08T14:46:50.063Z,10.92
2023-11-08T14:49:17.635Z,10.91
2023-11-08T14:51:48.808Z,10.88
2023-11-08T14:54:16.911Z,10.79
2023-11-08T14:56:44.401Z,10.73
2023-11-08T14:59:11.886Z,10.64
2023-11-08T15:01:39.447Z,10.62
2023-11-08T15:04:09.496Z,10.53
2023-11-08T15:06:37.381Z,10.60
2023-11-08T15:09:51.953Z,10.62
2023-11-08T15:11:52.934Z,10.66
2023-11-08T15:14:21.186Z,10.57
2023-11-08T15:16:48.712Z,10.58
2023-11-08T15:19:16.190Z,10.58
2023-11-08T15:21:43.826Z,10.58
2023-11-08T15:24:11.386Z,10.60
2023-11-08T15:26:39.255Z,10.60
2023-11-08T15:29:06.826Z,10.66
2023-11-08T15:31:34.350Z,10.70
2023-11-08T15:34:02.415Z,10.77
2023-11-08T15:36:29.913Z,10.77
2023-11-08T15:38:57.406Z,10.75
2023-11-08T15:41:25.170Z,10.81
2023-11-08T15:43:53.719Z,10.88
2023-11-08T15:46:22.124Z,10.78
2023-11-08T15:48:50.329Z,10.76
2023-11-08T15:51:18.423Z,10.69
2023-11-08T15:53:46.220Z,10.60
2023-11-08T15:56:14.386Z,10.57
2023-11-08T15:58:42.044Z,10.57
2023-11-08T16:01:09.575Z,10.50
2023-11-08T16:03:37.918Z,10.49
2023-11-08T16:06:05.797Z,10.60
2023-11-08T16:08:33.635Z,10.65
2023-11-08T16:11:01.117Z,10.64
2023-11-08T16:13:28.662Z,10.60
2023-11-08T16:15:56.242Z,10.58
2023-11-08T16:18:24.794Z,10.67
2023-11-08T16:20:52.445Z,10.76
2023-11-08T16:23:21.399Z,10.88
2023-11-08T16:25:49.287Z,10.71
2023-11-08T16:28:16.936Z,10.50
2023-11-08T16:31:00.800Z,10.37
2023-11-08T16:33:34.354Z,10.41
2023-11-08T16:36:02.466Z,10.46
2023-11-08T16:38:30.030Z,10.47
2023-11-08T16:40:58.058Z,10.44
2023-11-08T16:45:59.327Z,10.32
2023-11-08T16:48:27.367Z,10.18
2023-11-08T16:50:54.838Z,10.07
2023-11-08T16:53:22.382Z,10.02
2023-11-08T16:55:49.815Z,10.04
2023-11-08T16:58:19.175Z,10.10
2023-11-08T17:00:47.987Z,10.00
2023-11-08T17:03:17.837Z,9.80
2023-11-08T17:05:45.964Z,9.87
2023-11-08T17:08:13.707Z,9.86
2023-11-08T17:10:41.188Z,9.80
2023-11-08T17:13:10.869Z,9.70
2023-11-08T17:15:41.019Z,9.72
2023-11-08T17:18:09.069Z,9.69
2023-11-08T17:20:36.583Z,9.73
2023-11-08T17:23:04.086Z,9.72
2023-11-08T17:25:31.511Z,9.73
2023-11-08T17:27:59.359Z,9.73
2023-11-08T17:30:26.913Z,9.74
2023-11-08T17:32:55.392Z,9.70
2023-11-08T17:35:22.923Z,9.54
2023-11-08T17:37:50.559Z,9.50
2023-11-08T17:40:18.490Z,9.37
2023-11-08T17:42:46.023Z,9.27
2023-11-08T17:45:13.648Z,9.31
2023-11-08T17:47:42.304Z,9.29
2023-11-08T17:50:10.816Z,9.30
2023-11-08T17:52:38.311Z,9.22
2023-11-08T17:55:06.234Z,9.22
2023-11-08T17:57:33.717Z,9.23
2023-11-08T18:00:01.319Z,9.20
2023-11-08T18:02:32.105Z,9.21
2023-11-08T18:05:00.862Z,9.33
2023-11-08T18:07:28.355Z,9.22
2023-11-08T18:09:56.735Z,9.19
2023-11-08T18:12:24.586Z,9.12
2023-11-08T18:14:51.987Z,9.12
2023-11-08T18:17:19.475Z,9.09
2023-11-08T18:19:47.347Z,9.12
2023-11-08T18:22:15.139Z,9.00
2023-11-08T18:24:42.563Z,8.96
2023-11-08T18:27:10.149Z,8.95
2023-11-08T18:29:37.603Z,8.95
2023-11-08T18:32:05.071Z,8.94
2023-11-08T18:34:32.592Z,8.95
2023-11-08T18:37:00.161Z,9.01
2023-11-08T18:39:27.698Z,8.95
2023-11-08T18:41:55.222Z,8.85
2023-11-08T18:44:23.151Z,8.79
2023-11-08T18:46:52.157Z,8.94
2023-11-08T18:49:19.725Z,9.00
2023-11-08T18:51:48.222Z,8.85
2023-11-08T18:54:15.797Z,8.83
2023-11-08T18:56:43.795Z,8.79
2023-11-08T18:59:13.479Z,8.82
2023-11-08T19:01:41.426Z,8.78
2023-11-08T19:04:09.757Z,8.96
2023-11-08T19:06:42.085Z,9.02
2023-11-08T19:09:09.603Z,9.05
2023-11-08T19:11:37.014Z,8.91
2023-11-08T19:14:04.652Z,8.76
2023-11-08T19:16:32.319Z,8.72
2023-11-08T19:19:00.042Z,8.77
2023-11-08T19:21:28.634Z,8.84
2023-11-08T19:23:56.320Z,8.79
2023-11-08T19:26:23.949Z,8.71
2023-11-08T19:28:52.568Z,8.66
2023-11-08T19:31:20.284Z,8.66
2023-11-08T19:33:47.859Z,8.75
2023-11-08T19:36:15.372Z,8.87
2023-11-08T19:38:43.838Z,8.62
2023-11-08T19:41:12.164Z,8.59
2023-11-08T19:43:39.680Z,8.68
2023-11-08T19:46:08.145Z,8.85
2023-11-08T19:48:35.634Z,8.99
2023-11-08T19:51:03.228Z,8.83
2023-11-08T19:53:31.815Z,8.87
2023-11-08T19:56:06.501Z,8.78
2023-11-08T19:58:34.640Z,8.73
2023-11-08T20:01:03.354Z,8.84
2023-11-08T20:03:30.768Z,8.85
2023-11-08T20:05:58.606Z,8.91
2023-11-08T20:08:26.184Z,8.91
2023-11-08T20:10:54.488Z,8.86
2023-11-08T20:13:22.803Z,8.89
2023-11-08T20:15:50.334Z,8.96
2023-11-08T20:18:17.862Z,8.91
2023-11-08T20:20:46.773Z,8.96
2023-11-08T20:23:14.192Z,8.78
2023-11-08T20:25:41.896Z,8.80
2023-11-08T20:28:10.176Z,8.83
2023-11-08T20:30:38.267Z,8.78
2023-11-08T20:33:07.000Z,8.81
2023-11-08T20:35:35.193Z,8.89
2023-11-08T20:38:03.313Z,8.89
2023-11-08T20:40:30.815Z,8.78
2023-11-08T20:42:58.578Z,8.78
2023-11-08T20:45:26.256Z,8.78
2023-11-08T20:47:53.762Z,8.67
2023-11-08T20:50:22.597Z,8.72
2023-11-08T20:52:50.043Z,8.80
2023-11-08T20:55:17.564Z,8.70
2023-11-08T20:57:45.734Z,8.68
2023-11-08T21:00:14.551Z,8.76
2023-11-08T21:02:42.395Z,8.77
2023-11-08T21:05:10.415Z,8.71
2023-11-08T21:07:37.782Z,8.73
2023-11-08T21:10:06.433Z,8.77
2023-11-08T21:12:33.937Z,8.74
2023-11-08T21:15:01.442Z,8.77
2023-11-08T21:17:28.868Z,8.71
2023-11-08T21:19:56.354Z,8.72
2023-11-08T21:22:23.941Z,8.49
2023-11-08T21:24:51.411Z,8.44
2023-11-08T21:27:18.905Z,8.46
2023-11-08T21:29:46.433Z,8.47
2023-11-08T21:32:14.375Z,8.34
2023-11-08T21:34:43.662Z,8.20
2023-11-08T21:37:12.302Z,8.14
2023-11-08T21:39:42.218Z,8.16
2023-11-08T21:42:09.676Z,8.17
2023-11-08T21:44:37.030Z,8.16
2023-11-08T21:47:05.935Z,8.26
2023-11-08T21:49:34.146Z,8.29
2023-11-08T21:52:01.754Z,8.14
2023-11-08T21:54:29.510Z,8.02
2023-11-08T21:56:56.969Z,8.00
2023-11-08T21:59:24.564Z,8.02
2023-11-08T22:01:51.953Z,7.98
2023-11-08T22:04:19.395Z,7.94
2023-11-08T22:06:46.945Z,7.95
2023-11-08T22:09:14.381Z,7.82
2023-11-08T22:11:42.236Z,7.68
2023-11-08T22:14:09.690Z,7.77
2023-11-08T22:16:40.501Z,7.67
2023-11-08T22:19:09.986Z,7.67
2023-11-08T22:21:42.623Z,7.63
2023-11-08T22:24:11.090Z,7.62
2023-11-08T22:26:38.459Z,7.61
2023-11-08T22:29:06.748Z,7.62
2023-11-08T22:31:36.145Z,7.56
2023-11-08T22:34:03.948Z,7.36
2023-11-08T22:36:33.278Z,7.26
2023-11-08T22:39:02.209Z,7.27
2023-11-08T22:41:29.813Z,7.26
2023-11-08T22:43:57.218Z,7.33
2023-11-08T22:46:31.690Z,7.29
2023-11-08T22:48:59.643Z,7.24
2023-11-08T22:51:28.407Z,7.08
2023-11-08T22:53:55.884Z,7.09
2023-11-08T22:56:24.180Z,7.08
2023-11-08T22:58:51.679Z,7.02
2023-11-08T23:01:33.896Z,7.13
2023-11-08T23:04:04.893Z,7.20
2023-11-08T23:06:32.828Z,7.22
2023-11-08T23:09:03.832Z,7.14
2023-11-08T23:11:32.281Z,7.14
2023-11-08T23:14:00.115Z,7.14
2023-11-08T23:16:28.354Z,7.16
2023-11-08T23:18:56.150Z,7.17
2023-11-08T23:21:23.800Z,7.27
2023-11-08T23:23:52.719Z,7.30
2023-11-08T23:26:20.541Z,7.30
2023-11-08T23:28:48.024Z,7.25
2023-11-08T23:31:15.567Z,7.22
2023-11-08T23:33:43.115Z,7.22
2023-11-08T23:36:13.604Z,7.20
2023-11-08T23:38:44.794Z,7.26
2023-11-08T23:41:12.139Z,7.26
2023-11-08T23:43:39.871Z,7.25
2023-11-08T23:46:07.407Z,7.31
2023-11-08T23:48:34.939Z,7.32
2023-11-08T23:51:02.513Z,7.37
2023-11-08T23:53:29.928Z,7.31
2023-11-08T23:55:58.672Z,7.26
2023-11-08T23:58:26.003Z,7.28
